Time;durP1;ratioP1;P1;durP2;ratioP2;P2;SDS_P1;SDS_P2;PMS_P1;PMS_P2;Temp;Humidity;BMP_temperature;BMP_pressure;BME280_temperature;BME280_humidity;BME280_pressure;Samples;Min_cycle;Max_cycle;Signal;HPM_P1;HPM_P2
2023/05/19 00:00:43;;;;;;;8.23;2.70;;;12.20;99.30;;;;;;4845823;29;20044;-85
2023/05/19 00:03:11;;;;;;;9.88;2.72;;;12.20;99.40;;;;;;4830741;29;20050;-86
2023/05/19 00:05:44;;;;;;;6.57;2.35;;;12.20;99.40;;;;;;4848434;29;20044;-87
2023/05/19 00:08:10;;;;;;;10.13;2.78;;;12.20;99.50;;;;;;4851552;29;20561;-86
2023/05/19 00:10:37;;;;;;;9.13;2.88;;;12.10;99.40;;;;;;4849270;29;20037;-87
2023/05/19 00:13:03;;;;;;;8.77;2.63;;;12.10;99.50;;;;;;4850276;29;20085;-86
2023/05/19 00:15:29;;;;;;;7.95;2.78;;;12.10;99.40;;;;;;4845162;29;20081;-85
2023/05/19 00:17:55;;;;;;;9.30;2.80;;;12.10;99.50;;;;;;4850394;29;20162;-86
2023/05/19 00:20:21;;;;;;;8.25;2.58;;;12.10;99.60;;;;;;4856540;29;20546;-87
2023/05/19 00:22:47;;;;;;;10.73;2.80;;;12.00;99.60;;;;;;4852526;29;20060;-87
2023/05/19 00:25:13;;;;;;;9.05;3.00;;;12.00;99.50;;;;;;4861520;29;20056;-87
2023/05/19 00:27:38;;;;;;;12.27;3.03;;;12.00;99.60;;;;;;4849701;29;20045;-86
2023/05/19 00:30:04;;;;;;;7.70;3.00;;;11.90;99.60;;;;;;4862151;29;20049;-86
2023/05/19 00:32:30;;;;;;;9.25;3.42;;;11.90;99.60;;;;;;4843841;29;20045;-87
2023/05/19 00:34:56;;;;;;;8.68;3.00;;;11.90;99.60;;;;;;4848696;29;20121;-86
2023/05/19 00:37:22;;;;;;;8.40;2.78;;;11.90;99.60;;;;;;4860980;29;20399;-86
2023/05/19 00:39:48;;;;;;;7.03;2.85;;;11.90;99.70;;;;;;4844189;29;20054;-86
2023/05/19 00:42:13;;;;;;;7.53;2.70;;;11.80;99.70;;;;;;4873820;29;20049;-86
2023/05/19 00:44:40;;;;;;;6.43;3.00;;;11.70;99.70;;;;;;4855162;29;20036;-87
2023/05/19 00:47:06;;;;;;;9.48;3.10;;;11.80;99.70;;;;;;4841379;29;20109;-87
2023/05/19 00:49:32;;;;;;;9.43;2.70;;;11.70;99.60;;;;;;4829148;29;20058;-86
2023/05/19 00:52:00;;;;;;;6.55;2.60;;;11.70;99.50;;;;;;4844178;29;20432;-86
2023/05/19 00:54:26;;;;;;;7.50;3.17;;;11.60;99.40;;;;;;4874452;29;20102;-86
2023/05/19 00:56:54;;;;;;;10.85;3.55;;;11.60;99.60;;;;;;4847162;29;20054;-87
2023/05/19 00:59:19;;;;;;;8.70;3.22;;;11.60;99.80;;;;;;4860125;29;20053;-87
2023/05/19 01:01:47;;;;;;;8.18;2.90;;;11.50;99.80;;;;;;4858553;29;20056;-87
2023/05/19 01:04:17;;;;;;;6.82;2.78;;;11.50;99.90;;;;;;4849730;29;20078;-87
2023/05/19 01:06:45;;;;;;;9.70;2.80;;;11.50;99.90;;;;;;4862412;29;20128;-86
2023/05/19 01:09:11;;;;;;;7.20;3.13;;;11.40;99.80;;;;;;4849845;29;20050;-87
2023/05/19 01:11:37;;;;;;;7.32;3.10;;;11.40;99.80;;;;;;4842019;29;20505;-87
2023/05/19 01:14:02;;;;;;;8.05;3.00;;;11.40;99.80;;;;;;4876233;29;20467;-87
2023/05/19 01:16:34;;;;;;;9.93;3.70;;;11.40;99.90;;;;;;4839795;29;20042;-87
2023/05/19 01:19:26;;;;;;;8.38;3.30;;;11.30;99.90;;;;;;4850615;29;20102;-87
2023/05/19 01:22:06;;;;;;;7.20;3.08;;;11.30;99.90;;;;;;4855922;29;20058;-86
2023/05/19 01:24:49;;;;;;;9.77;3.65;;;11.20;99.90;;;;;;4853038;29;20494;-87
2023/05/19 01:27:21;;;;;;;8.05;3.47;;;11.20;99.90;;;;;;4824532;29;20066;-85
2023/05/19 01:30:22;;;;;;;9.82;3.50;;;11.20;99.90;;;;;;4838806;29;20145;-86
2023/05/19 01:32:51;;;;;;;6.30;3.00;;;11.10;99.90;;;;;;4860099;29;20060;-86
2023/05/19 01:35:17;;;;;;;8.52;3.42;;;11.10;99.90;;;;;;4848977;29;20045;-86
2023/05/19 01:37:44;;;;;;;8.77;3.22;;;11.10;99.90;;;;;;4846585;29;20475;-86
2023/05/19 01:40:10;;;;;;;6.90;2.92;;;11.00;99.90;;;;;;4875997;29;20065;-86
2023/05/19 01:42:38;;;;;;;7.75;2.92;;;11.00;99.90;;;;;;4848146;29;20163;-86
2023/05/19 01:45:09;;;;;;;10.35;3.80;;;11.00;99.90;;;;;;4846897;29;20034;-85
2023/05/19 01:47:39;;;;;;;9.88;3.30;;;11.00;99.90;;;;;;4831175;29;20052;-86
2023/05/19 01:50:05;;;;;;;9.27;3.00;;;10.90;99.90;;;;;;4849593;29;20509;-86
2023/05/19 01:52:31;;;;;;;9.70;3.40;;;10.90;99.90;;;;;;4843656;29;20063;-86
2023/05/19 01:54:56;;;;;;;8.23;2.72;;;10.90;99.90;;;;;;4852332;29;20078;-85
2023/05/19 01:57:48;;;;;;;8.55;3.30;;;10.80;99.90;;;;;;4842134;29;20052;-86
2023/05/19 02:00:39;;;;;;;6.88;2.78;;;10.80;99.90;;;;;;4849014;29;20062;-86
2023/05/19 02:03:28;;;;;;;7.85;2.85;;;10.80;99.90;;;;;;4841755;29;20054;-86
2023/05/19 02:05:58;;;;;;;8.32;3.03;;;10.80;99.90;;;;;;4847902;29;20121;-86
2023/05/19 02:08:37;;;;;;;7.25;3.22;;;10.70;99.90;;;;;;4832595;29;20125;-85
2023/05/19 02:11:13;;;;;;;9.45;3.30;;;10.70;99.90;;;;;;4857951;29;20049;-86
2023/05/19 02:13:43;;;;;;;8.68;3.08;;;10.70;99.90;;;;;;4859149;29;20109;-86
2023/05/19 02:16:12;;;;;;;7.65;3.40;;;10.70;99.90;;;;;;4852287;29;20045;-86
2023/05/19 02:18:39;;;;;;;6.95;2.70;;;10.60;99.90;;;;;;4854004;29;20052;-87
2023/05/19 02:21:05;;;;;;;8.15;3.20;;;10.60;99.90;;;;;;4847348;29;20050;-86
2023/05/19 02:23:30;;;;;;;7.60;3.13;;;10.60;99.90;;;;;;4861455;29;20051;-86
2023/05/19 02:25:56;;;;;;;9.27;2.97;;;10.60;99.90;;;;;;4852595;29;20049;-86
2023/05/19 02:28:21;;;;;;;9.15;3.40;;;10.60;99.90;;;;;;4841130;29;20046;-87
2023/05/19 02:30:47;;;;;;;8.40;3.03;;;10.50;99.90;;;;;;4839330;29;20043;-86
2023/05/19 02:33:13;;;;;;;11.15;3.67;;;10.50;99.90;;;;;;4824723;29;20465;-86
2023/05/19 02:35:38;;;;;;;10.10;3.17;;;10.60;99.90;;;;;;4839675;29;20164;-86
2023/05/19 02:38:04;;;;;;;8.77;3.15;;;10.50;99.90;;;;;;4842955;29;20552;-86
2023/05/19 02:40:30;;;;;;;8.55;3.10;;;10.50;99.90;;;;;;4874840;29;20093;-86
2023/05/19 02:42:55;;;;;;;9.02;3.13;;;10.40;99.90;;;;;;4859858;29;20496;-86
2023/05/19 02:45:21;;;;;;;7.18;2.88;;;10.40;99.90;;;;;;4849773;29;20128;-86
2023/05/19 02:47:46;;;;;;;6.60;2.67;;;10.40;99.90;;;;;;4841817;29;20053;-86
2023/05/19 02:50:12;;;;;;;7.72;2.65;;;10.40;99.90;;;;;;4858811;29;20049;-87
2023/05/19 02:52:38;;;;;;;8.30;3.20;;;10.30;99.80;;;;;;4850377;29;20384;-86
2023/05/19 02:55:04;;;;;;;8.00;2.90;;;10.30;99.70;;;;;;4845925;29;20046;-87
2023/05/19 02:57:30;;;;;;;9.27;2.90;;;10.30;99.60;;;;;;4842709;29;20049;-87
2023/05/19 02:59:56;;;;;;;7.13;2.67;;;10.30;99.70;;;;;;4849867;29;20137;-86
2023/05/19 03:02:21;;;;;;;8.93;3.10;;;10.20;99.90;;;;;;4841014;29;20164;-87
2023/05/19 03:04:47;;;;;;;10.35;3.00;;;10.20;99.90;;;;;;4842712;29;20053;-87
2023/05/19 03:07:14;;;;;;;8.38;2.90;;;10.20;99.90;;;;;;4846525;29;20058;-88
2023/05/19 03:09:40;;;;;;;9.77;3.13;;;10.20;99.90;;;;;;4840633;29;20053;-88
2023/05/19 03:12:06;;;;;;;7.70;2.75;;;10.10;99.90;;;;;;4852093;29;20053;-87
2023/05/19 03:14:33;;;;;;;8.43;3.25;;;10.10;99.90;;;;;;4855846;29;20130;-87
2023/05/19 03:16:59;;;;;;;9.63;3.00;;;10.10;99.90;;;;;;4842923;29;20075;-87
2023/05/19 03:19:25;;;;;;;9.70;3.20;;;10.10;99.90;;;;;;4841732;29;20391;-87
2023/05/19 03:21:51;;;;;;;7.15;2.95;;;10.10;99.90;;;;;;4842756;29;20042;-88
2023/05/19 03:24:17;;;;;;;8.25;3.40;;;10.10;99.90;;;;;;4842242;29;20050;-88
2023/05/19 03:26:43;;;;;;;8.90;3.10;;;10.00;99.90;;;;;;4852143;29;20048;-86
2023/05/19 03:29:08;;;;;;;9.85;2.78;;;10.10;99.90;;;;;;4861312;29;20395;-87
2023/05/19 03:31:34;;;;;;;7.05;2.72;;;10.00;99.90;;;;;;4852804;29;20053;-87
2023/05/19 03:34:00;;;;;;;9.00;3.10;;;10.00;99.90;;;;;;4859283;29;20049;-87
2023/05/19 03:36:30;;;;;;;8.93;2.90;;;9.90;99.90;;;;;;4851098;29;20062;-87
2023/05/19 03:38:57;;;;;;;8.32;2.90;;;9.90;99.90;;;;;;4858979;29;20064;-86
2023/05/19 03:41:22;;;;;;;7.60;2.70;;;9.90;99.90;;;;;;4852267;29;20200;-87
2023/05/19 03:43:48;;;;;;;9.50;3.45;;;9.90;99.90;;;;;;4845962;29;20050;-87
2023/05/19 03:46:14;;;;;;;6.97;2.88;;;9.90;99.90;;;;;;4848452;29;20494;-87
2023/05/19 03:48:40;;;;;;;9.27;3.15;;;9.80;99.90;;;;;;4843466;29;20054;-87
2023/05/19 03:51:06;;;;;;;7.13;2.67;;;9.90;99.90;;;;;;4843540;29;20114;-87
2023/05/19 03:53:31;;;;;;;8.40;3.13;;;9.80;99.90;;;;;;4845753;29;20440;-88
2023/05/19 03:55:58;;;;;;;8.82;3.30;;;9.80;99.90;;;;;;4844837;29;20038;-88
2023/05/19 03:58:24;;;;;;;6.85;2.90;;;9.80;99.80;;;;;;4843810;29;20046;-88
2023/05/19 04:00:50;;;;;;;8.25;3.00;;;9.70;99.70;;;;;;4840727;29;20081;-87
2023/05/19 04:03:15;;;;;;;8.30;2.97;;;9.70;99.70;;;;;;4843127;29;20505;-87
2023/05/19 04:05:41;;;;;;;8.65;3.30;;;9.70;99.70;;;;;;4842390;29;20115;-88
2023/05/19 04:08:07;;;;;;;8.45;3.05;;;9.70;99.70;;;;;;4845087;29;20046;-87
2023/05/19 04:10:32;;;;;;;10.23;3.70;;;9.70;99.70;;;;;;4843097;29;20049;-87
2023/05/19 04:12:58;;;;;;;7.38;3.17;;;9.70;99.70;;;;;;4843525;29;21321;-87
2023/05/19 04:15:24;;;;;;;9.50;3.92;;;9.70;99.70;;;;;;4843863;29;20048;-88
2023/05/19 04:17:49;;;;;;;8.23;3.35;;;9.60;99.90;;;;;;4844334;29;20046;-87
2023/05/19 04:20:15;;;;;;;10.40;3.83;;;9.60;99.90;;;;;;4842622;29;20441;-88
2023/05/19 04:22:40;;;;;;;10.25;3.55;;;9.60;99.90;;;;;;4843749;29;20081;-89
2023/05/19 04:25:07;;;;;;;8.63;3.53;;;9.60;99.90;;;;;;4842654;29;20042;-88
2023/05/19 04:27:37;;;;;;;6.85;3.50;;;9.60;99.90;;;;;;4841762;29;20054;-88
2023/05/19 04:30:04;;;;;;;8.43;3.80;;;9.60;99.90;;;;;;4842911;29;20401;-88
2023/05/19 04:32:29;;;;;;;7.43;3.38;;;9.60;99.90;;;;;;4842972;29;20053;-89
2023/05/19 04:34:57;;;;;;;10.05;3.63;;;9.60;99.90;;;;;;4842607;29;20045;-87
2023/05/19 04:37:24;;;;;;;9.82;3.80;;;9.60;99.90;;;;;;4844295;29;20048;-89
2023/05/19 04:39:51;;;;;;;9.20;3.53;;;9.70;99.90;;;;;;4843026;29;20566;-88
2023/05/19 04:42:18;;;;;;;8.30;3.60;;;9.60;99.90;;;;;;4818221;29;20137;-87
2023/05/19 04:44:44;;;;;;;11.23;4.10;;;9.70;99.90;;;;;;4817625;29;20153;-88
2023/05/19 04:47:10;;;;;;;7.00;3.47;;;9.70;99.90;;;;;;4809613;29;20056;-88
2023/05/19 04:49:39;;;;;;;9.95;4.10;;;9.60;99.90;;;;;;4808709;29;20046;-87
2023/05/19 04:52:11;;;;;;;9.93;3.55;;;9.60;99.90;;;;;;4830487;29;20053;-88
2023/05/19 04:54:37;;;;;;;8.13;3.58;;;9.60;99.90;;;;;;4842117;29;20051;-88
2023/05/19 04:57:04;;;;;;;10.23;3.75;;;9.60;99.90;;;;;;4824154;29;20058;-88
2023/05/19 04:59:30;;;;;;;10.93;3.80;;;9.60;99.90;;;;;;4815800;29;20507;-87
2023/05/19 05:01:56;;;;;;;9.10;3.42;;;9.70;99.90;;;;;;4823389;29;20057;-87
2023/05/19 05:04:22;;;;;;;10.15;4.07;;;9.70;99.90;;;;;;4823631;29;20049;-87
2023/05/19 05:06:49;;;;;;;9.30;3.78;;;9.60;99.90;;;;;;4796233;29;20126;-88
2023/05/19 05:09:15;;;;;;;7.85;3.70;;;9.70;99.90;;;;;;4812994;29;20449;-88
2023/05/19 05:11:42;;;;;;;8.15;3.75;;;9.80;99.90;;;;;;4813021;29;20052;-87
2023/05/19 05:14:08;;;;;;;10.05;3.85;;;9.70;99.90;;;;;;4811768;29;20050;-88
2023/05/19 05:16:34;;;;;;;8.57;3.70;;;9.70;99.90;;;;;;4803090;29;20068;-85
2023/05/19 05:19:00;;;;;;;9.75;4.03;;;9.70;99.90;;;;;;4810396;29;20517;-84
2023/05/19 05:21:27;;;;;;;8.05;3.58;;;9.80;99.90;;;;;;4825166;29;20092;-84
2023/05/19 05:23:55;;;;;;;8.75;4.18;;;9.70;99.90;;;;;;4807529;29;20423;-85
2023/05/19 05:26:25;;;;;;;7.53;3.70;;;9.80;99.90;;;;;;4799618;29;20125;-87
2023/05/19 05:28:50;;;;;;;10.05;4.20;;;9.80;99.90;;;;;;4818616;29;20381;-86
2023/05/19 05:31:16;;;;;;;9.70;3.85;;;9.80;99.90;;;;;;4799769;29;20054;-86
2023/05/19 05:33:42;;;;;;;6.97;3.53;;;9.90;99.90;;;;;;4818996;29;20112;-86
2023/05/19 05:36:08;;;;;;;9.20;3.92;;;9.90;99.90;;;;;;4820378;29;20052;-88
2023/05/19 05:38:34;;;;;;;9.07;4.05;;;9.90;99.90;;;;;;4815199;29;20113;-87
2023/05/19 05:41:01;;;;;;;9.38;4.07;;;9.90;99.90;;;;;;4843999;29;20061;-88
2023/05/19 05:43:28;;;;;;;8.88;3.72;;;9.90;99.90;;;;;;4841166;29;20054;-88
2023/05/19 05:45:53;;;;;;;7.55;3.75;;;10.00;99.90;;;;;;4840063;29;20118;-88
2023/05/19 05:48:19;;;;;;;8.35;3.60;;;10.00;99.90;;;;;;4860536;29;20049;-88
2023/05/19 05:50:47;;;;;;;8.63;3.42;;;10.00;99.90;;;;;;4846539;29;20061;-87
2023/05/19 05:53:18;;;;;;;8.23;3.72;;;10.00;99.90;;;;;;4845825;29;20056;-90
2023/05/19 05:55:45;;;;;;;9.68;4.03;;;10.00;99.90;;;;;;4861806;29;20052;-88
2023/05/19 05:58:11;;;;;;;9.02;3.90;;;10.00;99.90;;;;;;4855969;29;20070;-87
2023/05/19 06:00:37;;;;;;;8.80;3.78;;;10.10;99.90;;;;;;4857546;29;20088;-87
2023/05/19 06:03:03;;;;;;;10.77;3.85;;;10.10;99.90;;;;;;4842544;29;20045;-87
2023/05/19 06:05:29;;;;;;;9.38;4.32;;;10.10;99.90;;;;;;4823988;29;20090;-85
2023/05/19 06:07:54;;;;;;;10.93;4.03;;;10.20;99.90;;;;;;4823884;29;20050;-87
2023/05/19 06:10:20;;;;;;;13.02;4.13;;;10.20;99.90;;;;;;4851623;29;20040;-86
2023/05/19 06:12:46;;;;;;;10.38;4.55;;;10.20;99.90;;;;;;4843571;29;20058;-86
2023/05/19 06:15:12;;;;;;;10.75;3.90;;;10.20;99.90;;;;;;4857441;29;20065;-89
2023/05/19 06:17:38;;;;;;;8.65;4.20;;;10.20;99.90;;;;;;4833545;29;20050;-90
2023/05/19 06:20:05;;;;;;;10.23;3.75;;;10.30;99.90;;;;;;4859456;29;20431;-89
2023/05/19 06:22:31;;;;;;;10.70;3.60;;;10.20;99.90;;;;;;4850179;29;20045;-89
2023/05/19 06:24:56;;;;;;;9.48;3.80;;;10.30;99.90;;;;;;4851170;29;20102;-88
2023/05/19 06:27:22;;;;;;;8.45;3.83;;;10.30;99.90;;;;;;4843533;29;20045;-90
2023/05/19 06:29:48;;;;;;;9.30;3.90;;;10.40;99.90;;;;;;4842921;29;20102;-91
2023/05/19 06:32:14;;;;;;;8.35;3.58;;;10.40;99.90;;;;;;4844853;29;20050;-90
2023/05/19 06:34:39;;;;;;;9.63;4.28;;;10.50;99.90;;;;;;4843321;29;20045;-91
2023/05/19 06:37:05;;;;;;;8.60;3.58;;;10.60;99.90;;;;;;4841027;29;20042;-90
2023/05/19 06:39:31;;;;;;;8.23;3.50;;;10.70;99.90;;;;;;4841980;29;20061;-92
2023/05/19 06:41:57;;;;;;;11.05;3.95;;;10.70;99.90;;;;;;4843025;29;20113;-88
2023/05/19 06:44:23;;;;;;;10.48;3.72;;;10.80;99.90;;;;;;4842586;29;20136;-91
2023/05/19 06:46:48;;;;;;;9.38;3.60;;;10.90;99.90;;;;;;4843516;29;20121;-90
2023/05/19 06:49:14;;;;;;;11.18;3.75;;;10.90;99.90;;;;;;4840492;29;20061;-89
2023/05/19 06:51:40;;;;;;;9.13;3.45;;;11.00;99.90;;;;;;4841594;29;20054;-90
2023/05/19 06:54:06;;;;;;;11.98;3.50;;;11.10;99.90;;;;;;4837789;29;20047;-92
2023/05/19 06:56:35;;;;;;;7.97;3.67;;;11.20;99.90;;;;;;4824166;29;20396;-92
2023/05/19 06:59:13;;;;;;;7.60;3.25;;;11.30;99.90;;;;;;4825420;29;20111;-92
2023/05/19 07:01:38;;;;;;;9.68;3.28;;;11.30;99.90;;;;;;4832316;29;20073;-91
2023/05/19 07:04:09;;;;;;;11.25;3.50;;;11.50;99.90;;;;;;4843547;29;20113;-91
2023/05/19 07:06:37;;;;;;;9.15;3.03;;;11.60;99.90;;;;;;4838942;29;20049;-91
2023/05/19 07:09:05;;;;;;;8.82;3.38;;;11.70;99.90;;;;;;4825201;29;20089;-92
2023/05/19 07:11:31;;;;;;;12.13;3.47;;;11.70;99.90;;;;;;4855254;29;20050;-92
2023/05/19 07:13:58;;;;;;;8.93;3.17;;;11.90;99.80;;;;;;4824629;29;20049;-92
2023/05/19 07:16:24;;;;;;;11.05;3.35;;;12.00;99.70;;;;;;4855341;29;20055;-92
2023/05/19 07:18:49;;;;;;;7.85;3.00;;;12.10;99.60;;;;;;4828781;29;20118;-91
2023/05/19 07:21:15;;;;;;;8.07;3.20;;;12.20;99.50;;;;;;4850320;24;20444;-91
2023/05/19 07:23:43;;;;;;;8.98;3.08;;;12.30;99.50;;;;;;4845503;29;20050;-93
2023/05/19 07:26:09;;;;;;;8.45;2.90;;;12.40;99.30;;;;;;4847298;29;20046;-91
2023/05/19 07:28:35;;;;;;;7.40;2.70;;;12.50;99.30;;;;;;4845335;29;20065;-92
2023/05/19 07:31:09;;;;;;;10.13;3.10;;;12.60;99.20;;;;;;4845807;29;20042;-92
2023/05/19 07:33:35;;;;;;;7.45;3.30;;;12.70;98.80;;;;;;4846467;29;20053;-90
2023/05/19 07:36:00;;;;;;;7.25;2.88;;;12.80;98.80;;;;;;4846407;29;20065;-91
2023/05/19 07:38:27;;;;;;;8.50;3.00;;;12.90;98.80;;;;;;4844584;29;20407;-91
2023/05/19 07:40:53;;;;;;;9.30;2.78;;;13.00;98.60;;;;;;4845149;29;20046;-90
2023/05/19 07:43:19;;;;;;;7.75;2.85;;;13.10;98.00;;;;;;4846225;29;20072;-90
2023/05/19 07:45:44;;;;;;;9.77;2.78;;;13.20;97.80;;;;;;4845401;29;20072;-90
2023/05/19 07:48:10;;;;;;;9.40;2.70;;;13.30;97.10;;;;;;4844570;29;20050;-92
2023/05/19 07:50:36;;;;;;;6.78;2.80;;;13.40;97.20;;;;;;4845067;29;20081;-93
2023/05/19 07:53:04;;;;;;;7.53;2.50;;;13.50;97.60;;;;;;4846314;29;20518;-92
2023/05/19 07:55:29;;;;;;;7.38;2.67;;;13.60;97.70;;;;;;4845376;29;20120;-91
2023/05/19 07:57:57;;;;;;;7.18;2.90;;;13.70;97.80;;;;;;4844513;29;20539;-90
2023/05/19 08:00:23;;;;;;;7.13;2.58;;;13.70;97.80;;;;;;4843974;29;20106;-91
2023/05/19 08:02:49;;;;;;;9.48;2.78;;;13.90;97.10;;;;;;4844352;29;20046;-87
2023/05/19 08:05:38;;;;;;;7.95;2.40;;;14.00;97.20;;;;;;4844918;29;20487;-89
2023/05/19 08:08:04;;;;;;;10.60;2.88;;;14.10;97.30;;;;;;4840283;29;20141;-89
2023/05/19 08:10:30;;;;;;;8.50;2.60;;;14.10;96.60;;;;;;4844340;29;20563;-87
2023/05/19 08:12:55;;;;;;;7.32;2.63;;;14.30;95.60;;;;;;4843269;29;20046;-86
2023/05/19 08:15:21;;;;;;;6.30;2.42;;;14.30;96.30;;;;;;4844165;29;20053;-90
2023/05/19 08:17:47;;;;;;;7.57;2.50;;;14.50;96.20;;;;;;4844436;29;20050;-89
2023/05/19 08:20:50;;;;;;;6.95;2.30;;;14.50;96.00;;;;;;4844570;29;20065;-91
2023/05/19 08:23:16;;;;;;;6.78;2.40;;;14.60;95.70;;;;;;4844977;29;20046;-91
2023/05/19 08:25:45;;;;;;;7.80;2.55;;;14.70;96.00;;;;;;4843081;29;20050;-88
2023/05/19 08:28:17;;;;;;;7.70;2.47;;;14.80;95.50;;;;;;4843449;29;20086;-91
2023/05/19 08:30:42;;;;;;;8.20;3.05;;;14.90;94.60;;;;;;4843549;29;20101;-86
2023/05/19 08:33:08;;;;;;;9.00;2.58;;;14.90;94.70;;;;;;4844247;29;20046;-89
2023/05/19 08:35:34;;;;;;;6.07;2.35;;;15.10;95.40;;;;;;4842966;29;20042;-89
2023/05/19 08:38:00;;;;;;;9.43;2.33;;;15.20;95.70;;;;;;4843720;29;20171;-88
2023/05/19 08:40:30;;;;;;;8.80;2.33;;;15.20;95.40;;;;;;4842768;29;20093;-87
2023/05/19 08:42:55;;;;;;;6.13;2.00;;;15.30;94.80;;;;;;4843355;29;20053;-89
2023/05/19 08:45:21;;;;;;;6.97;2.42;;;15.40;95.20;;;;;;4843601;29;20057;-88
2023/05/19 08:47:49;;;;;;;7.93;2.35;;;15.40;95.70;;;;;;4841883;29;20482;-88
2023/05/19 08:50:38;;;;;;;8.10;2.05;;;15.60;96.10;;;;;;4844163;29;20042;-87
2023/05/19 08:53:18;;;;;;;6.95;2.20;;;15.70;96.20;;;;;;4844563;29;20085;-87
2023/05/19 08:56:09;;;;;;;6.25;2.40;;;15.70;96.10;;;;;;4842128;29;20041;-89
2023/05/19 08:58:38;;;;;;;6.53;2.30;;;15.80;95.50;;;;;;4844543;29;20046;-91
2023/05/19 09:01:06;;;;;;;10.25;2.20;;;15.90;95.60;;;;;;4843471;29;20041;-90
2023/05/19 09:03:38;;;;;;;7.38;2.42;;;16.00;95.20;;;;;;4844438;29;20054;-90
2023/05/19 09:06:12;;;;;;;6.38;1.98;;;16.10;95.30;;;;;;4844134;29;20129;-90
2023/05/19 09:09:00;;;;;;;7.22;2.17;;;16.10;94.90;;;;;;4842821;29;20046;-91
2023/05/19 09:11:29;;;;;;;8.38;2.42;;;16.20;94.20;;;;;;4844814;29;20129;-90
2023/05/19 09:13:54;;;;;;;7.63;2.38;;;16.30;94.90;;;;;;4843122;29;20050;-92
2023/05/19 09:16:52;;;;;;;6.63;2.00;;;16.40;94.90;;;;;;4844275;29;20132;-91
2023/05/19 09:19:21;;;;;;;6.40;2.05;;;16.50;95.00;;;;;;4823487;29;20717;-90
2023/05/19 09:21:59;;;;;;;8.13;2.33;;;16.60;93.80;;;;;;4842296;29;20460;-90
2023/05/19 09:24:24;;;;;;;6.18;1.98;;;16.70;94.10;;;;;;4844013;29;20045;-89
2023/05/19 09:26:50;;;;;;;9.57;2.00;;;16.70;94.40;;;;;;4842963;29;20133;-89
2023/05/19 09:29:16;;;;;;;7.78;1.92;;;16.80;94.80;;;;;;4843746;29;20045;-91
2023/05/19 09:31:50;;;;;;;6.95;1.90;;;16.80;93.00;;;;;;4842557;29;20081;-89
2023/05/19 09:34:19;;;;;;;5.85;1.73;;;17.00;92.20;;;;;;4842844;29;20052;-89
2023/05/19 09:36:48;;;;;;;5.93;1.80;;;17.00;92.30;;;;;;4842521;29;20526;-88
2023/05/19 09:39:25;;;;;;;5.10;2.05;;;17.10;91.80;;;;;;4842059;29;20057;-89
2023/05/19 09:41:56;;;;;;;6.18;1.80;;;17.20;91.90;;;;;;4843529;29;20170;-88
2023/05/19 09:44:23;;;;;;;5.43;2.10;;;17.30;93.40;;;;;;4841224;29;20425;-87
2023/05/19 09:46:50;;;;;;;6.25;2.00;;;17.30;92.40;;;;;;4841406;29;20046;-87
2023/05/19 09:49:20;;;;;;;8.35;2.13;;;17.40;93.10;;;;;;4842319;29;20054;-88
2023/05/19 09:51:58;;;;;;;5.45;1.98;;;17.50;93.90;;;;;;4839653;29;20077;-87
2023/05/19 09:54:26;;;;;;;5.15;1.90;;;17.60;93.80;;;;;;4841037;29;20152;-87
2023/05/19 09:56:59;;;;;;;5.75;1.88;;;17.60;94.00;;;;;;4842696;29;20653;-88
2023/05/19 09:59:26;;;;;;;6.75;2.10;;;17.70;94.00;;;;;;4840502;29;20590;-87
2023/05/19 10:01:56;;;;;;;7.00;2.08;;;17.80;93.70;;;;;;4842836;29;20050;-87
2023/05/19 10:04:23;;;;;;;4.93;1.85;;;17.90;93.80;;;;;;4841470;29;20899;-88
2023/05/19 10:06:52;;;;;;;7.05;1.90;;;17.90;93.80;;;;;;4842979;29;20037;-87
2023/05/19 10:09:26;;;;;;;6.30;1.88;;;17.90;93.30;;;;;;4841986;29;20050;-87
2023/05/19 10:11:53;;;;;;;5.18;2.05;;;18.00;93.20;;;;;;4841429;29;20521;-87
2023/05/19 10:14:25;;;;;;;6.80;2.05;;;18.10;93.50;;;;;;4842783;29;20049;-87
2023/05/19 10:16:53;;;;;;;6.22;2.15;;;18.10;93.70;;;;;;4839587;29;20578;-86
2023/05/19 10:19:23;;;;;;;8.40;2.30;;;18.20;93.00;;;;;;4840874;29;20083;-87
2023/05/19 10:21:49;;;;;;;7.35;1.75;;;18.20;90.90;;;;;;4842619;29;20052;-86
2023/05/19 10:24:16;;;;;;;9.05;2.40;;;18.20;88.70;;;;;;4841213;29;20129;-86
2023/05/19 10:27:04;;;;;;;5.40;2.05;;;18.30;88.80;;;;;;4840738;29;20062;-85
2023/05/19 10:29:35;;;;;;;6.38;2.00;;;18.40;91.50;;;;;;4832154;29;20061;-85
2023/05/19 10:32:07;;;;;;;5.18;2.00;;;18.40;92.10;;;;;;4846736;29;20479;-87
2023/05/19 10:34:50;;;;;;;4.50;1.80;;;18.50;93.10;;;;;;4845753;29;20118;-84
2023/05/19 10:37:50;;;;;;;7.20;2.22;;;18.60;93.20;;;;;;4839445;29;20137;-88
2023/05/19 10:40:29;;;;;;;7.78;1.90;;;18.60;93.10;;;;;;4841429;29;20550;-84
2023/05/19 10:43:46;;;;;;;9.07;1.92;;;18.80;93.00;;;;;;4829118;29;20065;-85
2023/05/19 10:46:12;;;;;;;7.32;2.20;;;18.80;92.50;;;;;;4820492;29;20414;-85
2023/05/19 10:48:44;;;;;;;6.25;2.10;;;18.90;93.20;;;;;;4839402;29;20063;-86
2023/05/19 10:51:11;;;;;;;7.45;2.00;;;19.00;91.80;;;;;;4826361;29;20060;-85
2023/05/19 10:53:44;;;;;;;7.32;2.00;;;19.10;92.40;;;;;;4843295;29;20629;-86
2023/05/19 10:56:11;;;;;;;5.28;2.08;;;19.20;91.40;;;;;;4845688;29;20046;-85
2023/05/19 10:58:40;;;;;;;5.88;2.03;;;19.30;93.00;;;;;;4842213;29;20042;-86
2023/05/19 11:01:13;;;;;;;7.15;1.85;;;19.40;93.50;;;;;;4848757;29;20533;-86
2023/05/19 11:03:47;;;;;;;6.95;2.25;;;19.50;93.90;;;;;;4840537;29;20064;-85
2023/05/19 11:06:30;;;;;;;5.57;1.90;;;19.60;87.90;;;;;;4842161;29;20046;-85
2023/05/19 11:09:00;;;;;;;7.00;2.00;;;19.60;91.50;;;;;;4843632;29;20049;-85
2023/05/19 11:11:41;;;;;;;8.52;2.28;;;19.70;92.60;;;;;;4851571;29;20407;-85
2023/05/19 11:14:10;;;;;;;6.55;2.08;;;19.80;90.30;;;;;;4840650;29;20106;-85
2023/05/19 11:16:36;;;;;;;8.07;1.98;;;19.90;91.80;;;;;;4852897;29;20437;-86
2023/05/19 11:19:05;;;;;;;6.30;1.98;;;20.00;92.40;;;;;;4851883;29;20081;-85
2023/05/19 11:21:47;;;;;;;4.45;1.90;;;20.10;92.70;;;;;;4845827;29;20062;-84
2023/05/19 11:24:46;;;;;;;7.90;2.05;;;20.10;93.50;;;;;;4844985;29;20042;-86
2023/05/19 11:27:26;;;;;;;7.18;2.35;;;20.20;93.40;;;;;;4860134;29;20044;-86
2023/05/19 11:29:53;;;;;;;5.18;1.90;;;20.30;90.60;;;;;;4854393;29;20065;-84
2023/05/19 11:32:21;;;;;;;7.90;2.10;;;20.40;92.60;;;;;;4857340;29;20142;-85
2023/05/19 11:34:47;;;;;;;6.75;1.90;;;20.40;90.90;;;;;;4859318;29;20136;-86
2023/05/19 11:37:13;;;;;;;6.35;1.92;;;20.50;92.20;;;;;;4837501;29;20406;-84
2023/05/19 11:39:39;;;;;;;7.80;2.22;;;20.60;92.80;;;;;;4846099;29;20037;-86
2023/05/19 11:42:07;;;;;;;7.20;2.20;;;20.60;93.00;;;;;;4844145;29;20049;-86
2023/05/19 11:44:33;;;;;;;5.88;2.30;;;20.70;91.90;;;;;;4838568;29;20044;-84
2023/05/19 11:46:59;;;;;;;7.72;2.30;;;20.70;92.70;;;;;;4841995;29;20050;-86
2023/05/19 11:49:28;;;;;;;8.00;2.00;;;20.80;92.40;;;;;;4855929;29;20096;-86
2023/05/19 11:51:53;;;;;;;8.23;2.30;;;20.80;92.80;;;;;;4853585;29;20046;-87
2023/05/19 11:54:19;;;;;;;6.45;2.35;;;20.90;92.90;;;;;;4849414;29;20041;-84
2023/05/19 11:56:46;;;;;;;7.35;2.17;;;21.00;93.20;;;;;;4838734;29;20046;-87
2023/05/19 11:59:14;;;;;;;6.13;2.08;;;21.00;93.10;;;;;;4840273;29;20150;-89
2023/05/19 12:01:40;;;;;;;6.20;2.50;;;21.10;91.90;;;;;;4846658;29;20402;-92
2023/05/19 12:04:11;;;;;;;6.22;2.17;;;21.10;92.60;;;;;;4849560;29;20069;-90
2023/05/19 12:06:38;;;;;;;5.47;2.10;;;21.20;91.10;;;;;;4843518;29;20495;-91
2023/05/19 12:09:04;;;;;;;7.28;2.15;;;21.20;92.00;;;;;;4843216;29;20051;-90
2023/05/19 12:11:30;;;;;;;5.35;1.80;;;21.30;91.80;;;;;;4843061;29;20056;-91
2023/05/19 12:14:00;;;;;;;6.95;2.00;;;21.30;92.30;;;;;;4844078;29;20049;-90
2023/05/19 12:16:35;;;;;;;7.65;2.20;;;21.40;92.10;;;;;;4844154;29;20120;-90
2023/05/19 12:19:04;;;;;;;6.75;2.22;;;21.40;90.10;;;;;;4843399;29;20046;-90
2023/05/19 12:21:30;;;;;;;9.40;2.60;;;21.50;90.00;;;;;;4843547;29;20054;-90
2023/05/19 12:23:57;;;;;;;5.47;1.85;;;21.50;90.90;;;;;;4843892;29;20053;-90
2023/05/19 12:26:22;;;;;;;8.20;2.40;;;21.60;91.40;;;;;;4843550;29;20058;-91
2023/05/19 12:28:51;;;;;;;6.90;2.30;;;21.50;88.30;;;;;;4843498;29;20518;-90
2023/05/19 12:31:17;;;;;;;6.72;2.50;;;21.50;88.60;;;;;;4843468;29;20110;-88
2023/05/19 12:33:44;;;;;;;7.15;2.30;;;21.60;89.70;;;;;;4842775;29;20038;-88
2023/05/19 12:36:12;;;;;;;8.73;2.25;;;21.60;89.20;;;;;;4843162;29;20046;-90
2023/05/19 12:38:38;;;;;;;8.32;2.25;;;21.60;90.90;;;;;;4843576;29;20054;-90
2023/05/19 12:41:05;;;;;;;6.05;2.22;;;21.70;91.60;;;;;;4842801;29;20042;-90
2023/05/19 12:43:32;;;;;;;5.88;1.80;;;21.70;92.30;;;;;;4842967;29;20069;-89
2023/05/19 12:46:07;;;;;;;8.02;2.33;;;21.80;92.60;;;;;;4842854;29;20109;-90
2023/05/19 12:48:33;;;;;;;6.88;2.35;;;21.90;92.40;;;;;;4844422;29;20050;-90
2023/05/19 12:50:59;;;;;;;8.07;2.08;;;21.90;92.70;;;;;;4844448;29;20041;-91
2023/05/19 12:53:26;;;;;;;5.80;2.38;;;21.90;92.80;;;;;;4844001;29;20050;-90
2023/05/19 12:55:52;;;;;;;6.07;2.08;;;22.00;92.90;;;;;;4843035;29;20384;-90